createdAt,value
2023-03-12T00:03:14.962Z,100.00
2023-03-12T00:06:11.296Z,99.72
2023-03-12T00:08:59.252Z,98.42
2023-03-12T00:11:47.548Z,98.25
2023-03-12T00:14:34.411Z,98.60
2023-03-12T00:17:20.978Z,98.87
2023-03-12T00:20:08.493Z,98.52
2023-03-12T00:22:55.088Z,98.82
2023-03-12T00:25:41.802Z,97.45
2023-03-12T00:28:30.541Z,98.25
2023-03-12T00:31:19.754Z,97.32
2023-03-12T00:34:06.228Z,97.12
2023-03-12T00:36:52.939Z,98.02
2023-03-12T00:39:39.573Z,97.80
2023-03-12T00:42:26.527Z,97.34
2023-03-12T00:45:14.456Z,97.89
2023-03-12T00:48:01.138Z,97.03
2023-03-12T00:50:48.057Z,96.71
2023-03-12T00:53:35.031Z,98.07
2023-03-12T00:56:21.597Z,96.05
2023-03-12T00:59:08.613Z,96.88
2023-03-12T01:01:56.689Z,97.84
2023-03-12T01:04:43.540Z,98.33
2023-03-12T01:07:30.389Z,98.88
2023-03-12T01:10:21.777Z,96.95
2023-03-12T01:13:08.618Z,98.04
2023-03-12T01:15:55.484Z,97.79
2023-03-12T01:18:43.645Z,97.70
2023-03-12T01:21:31.615Z,97.52
2023-03-12T01:24:18.194Z,97.30
2023-03-12T01:27:04.910Z,98.79
2023-03-12T01:29:51.417Z,98.94
2023-03-12T01:32:38.349Z,99.51
2023-03-12T01:35:27.058Z,98.83
2023-03-12T01:38:16.328Z,100.00
2023-03-12T01:41:03.169Z,100.00
2023-03-12T01:43:50.931Z,99.88
2023-03-12T01:46:39.535Z,99.33
2023-03-12T01:49:33.086Z,97.85
2023-03-12T01:52:24.535Z,99.51
2023-03-12T01:55:15.703Z,100.00
2023-03-12T01:58:04.837Z,99.06
2023-03-12T02:00:51.800Z,100.00
2023-03-12T02:03:38.782Z,100.00
2023-03-12T02:06:34.169Z,100.00
2023-03-12T02:09:23.268Z,100.00
2023-03-12T02:12:11.349Z,100.00
2023-03-12T02:14:58.254Z,100.00
2023-03-12T02:17:44.880Z,100.00
2023-03-12T02:20:37.787Z,100.00
2023-03-12T02:23:30.268Z,100.00
2023-03-12T02:26:21.738Z,100.00
2023-03-12T02:29:11.533Z,100.00
2023-03-12T02:32:00.619Z,100.00
2023-03-12T02:34:48.147Z,100.00
2023-03-12T02:37:35.218Z,100.00
2023-03-12T02:40:26.415Z,100.00
2023-03-12T02:43:15.687Z,100.00
2023-03-12T02:46:02.913Z,100.00
2023-03-12T02:48:49.963Z,100.00
2023-03-12T02:51:36.510Z,100.00
2023-03-12T02:54:24.059Z,100.00
2023-03-12T02:57:10.735Z,100.00
2023-03-12T02:59:59.782Z,100.00
2023-03-12T03:02:46.975Z,100.00
2023-03-12T03:05:33.705Z,100.00
2023-03-12T03:08:20.543Z,100.00
2023-03-12T03:11:08.214Z,100.00
2023-03-12T03:13:56.090Z,100.00
2023-03-12T03:16:44.347Z,100.00
2023-03-12T03:19:31.268Z,100.00
2023-03-12T03:22:18.162Z,100.00
2023-03-12T03:25:04.999Z,100.00
2023-03-12T03:27:51.766Z,100.00
2023-03-12T03:30:38.685Z,100.00
2023-03-12T03:33:28.689Z,100.00
2023-03-12T03:36:16.095Z,100.00
2023-03-12T03:39:10.909Z,100.00
2023-03-12T03:41:57.768Z,100.00
2023-03-12T03:44:46.732Z,100.00
2023-03-12T03:47:33.610Z,100.00
2023-03-12T03:50:21.840Z,100.00
2023-03-12T03:53:10.359Z,100.00
2023-03-12T03:55:57.194Z,100.00
2023-03-12T03:58:44.597Z,100.00
2023-03-12T04:01:32.380Z,100.00
2023-03-12T04:04:20.995Z,100.00
2023-03-12T04:07:09.104Z,100.00
2023-03-12T04:09:56.306Z,100.00
2023-03-12T04:12:42.981Z,100.00
2023-03-12T04:15:29.721Z,100.00
2023-03-12T04:18:17.339Z,100.00
2023-03-12T04:21:04.760Z,100.00
2023-03-12T04:23:52.793Z,100.00
2023-03-12T04:26:43.450Z,100.00
2023-03-12T04:29:30.911Z,100.00
2023-03-12T04:32:17.726Z,100.00
2023-03-12T04:35:04.502Z,100.00
2023-03-12T04:37:51.626Z,100.00
2023-03-12T04:40:40.026Z,100.00
2023-03-12T04:43:27.004Z,100.00
2023-03-12T04:46:14.013Z,100.00
2023-03-12T04:49:03.696Z,100.00
2023-03-12T04:51:52.496Z,100.00
2023-03-12T04:54:40.324Z,100.00
2023-03-12T04:57:28.820Z,100.00
2023-03-12T05:00:16.493Z,100.00
2023-03-12T05:03:03.727Z,100.00
2023-03-12T05:05:51.045Z,100.00
2023-03-12T05:08:37.868Z,100.00
2023-03-12T05:11:24.451Z,100.00
2023-03-12T05:14:13.438Z,100.00
2023-03-12T05:17:01.854Z,100.00
2023-03-12T05:19:48.820Z,100.00
2023-03-12T05:22:35.630Z,100.00
2023-03-12T05:25:22.460Z,100.00
2023-03-12T05:28:09.304Z,100.00
2023-03-12T05:31:00.926Z,100.00
2023-03-12T05:33:51.650Z,100.00
2023-03-12T05:36:39.617Z,100.00
2023-03-12T05:39:27.550Z,100.00
2023-03-12T05:42:18.383Z,100.00
2023-03-12T05:45:07.031Z,100.00
2023-03-12T05:47:56.749Z,100.00
2023-03-12T05:50:44.045Z,100.00
2023-03-12T05:53:31.251Z,100.00
2023-03-12T05:56:19.730Z,100.00
2023-03-12T05:59:07.662Z,100.00
2023-03-12T06:01:54.194Z,100.00
2023-03-12T06:04:42.365Z,100.00
2023-03-12T06:07:29.350Z,100.00
2023-03-12T06:10:16.113Z,100.00
2023-03-12T06:13:05.200Z,100.00
2023-03-12T06:15:52.286Z,100.00
2023-03-12T06:18:39.493Z,100.00
2023-03-12T06:21:29.470Z,100.00
2023-03-12T06:24:16.208Z,100.00
2023-03-12T06:27:09.461Z,100.00
2023-03-12T06:29:56.042Z,100.00
2023-03-12T06:32:42.907Z,100.00
2023-03-12T06:35:29.638Z,100.00
2023-03-12T06:38:17.915Z,100.00
2023-03-12T06:41:07.980Z,100.00
2023-03-12T06:43:54.514Z,100.00
2023-03-12T06:46:42.761Z,100.00
2023-03-12T06:49:32.323Z,100.00
2023-03-12T06:52:19.210Z,100.00
2023-03-12T06:55:08.266Z,100.00
2023-03-12T06:57:54.960Z,99.12
2023-03-12T07:00:41.649Z,98.91
2023-03-12T07:03:28.574Z,99.90
2023-03-12T07:06:16.257Z,99.78
2023-03-12T07:09:02.792Z,100.00
2023-03-12T07:11:51.027Z,99.24
2023-03-12T07:14:37.864Z,100.00
2023-03-12T07:17:24.707Z,100.00
2023-03-12T07:20:13.214Z,100.00
2023-03-12T07:23:00.414Z,100.00
2023-03-12T07:25:48.009Z,99.39
2023-03-12T07:28:36.213Z,97.79
2023-03-12T07:31:23.159Z,96.75
2023-03-12T07:34:10.098Z,97.85
2023-03-12T07:36:56.720Z,97.95
2023-03-12T07:39:43.966Z,94.81
2023-03-12T07:42:30.483Z,94.77
2023-03-12T07:45:19.672Z,95.95
2023-03-12T07:48:06.958Z,96.23
2023-03-12T07:50:53.446Z,95.12
2023-03-12T07:53:40.182Z,92.78
2023-03-12T07:56:27.074Z,93.98
2023-03-12T07:59:14.025Z,91.01
2023-03-12T08:02:02.450Z,86.72
2023-03-12T08:04:49.342Z,83.20
2023-03-12T08:07:37.204Z,83.45
2023-03-12T08:10:24.431Z,81.28
2023-03-12T08:13:10.899Z,76.43
2023-03-12T08:15:58.014Z,70.82
2023-03-12T08:18:45.938Z,65.36
2023-03-12T08:21:32.754Z,58.81
2023-03-12T08:24:19.463Z,55.93
2023-03-12T08:27:06.285Z,56.05
2023-03-12T08:29:53.141Z,56.53
2023-03-12T08:32:40.370Z,63.60
2023-03-12T08:35:28.771Z,66.86
2023-03-12T08:38:15.413Z,72.72
2023-03-12T08:41:02.852Z,74.96
2023-03-12T08:43:49.657Z,73.90
2023-03-12T08:46:36.538Z,73.98
2023-03-12T08:49:24.225Z,74.54
2023-03-12T08:52:12.310Z,72.80
2023-03-12T08:54:59.132Z,72.27
2023-03-12T08:57:46.041Z,70.63
2023-03-12T09:00:32.763Z,71.75
2023-03-12T09:03:21.643Z,69.34
2023-03-12T09:06:13.402Z,69.07
2023-03-12T09:09:05.115Z,68.64
2023-03-12T09:11:51.839Z,66.64
2023-03-12T09:17:44.987Z,67.98
2023-03-12T09:20:32.339Z,69.66
2023-03-12T09:23:19.429Z,69.79
2023-03-12T09:26:10.795Z,71.11
2023-03-12T09:28:58.058Z,70.88
2023-03-12T09:31:44.495Z,70.87
2023-03-12T09:34:31.128Z,69.93
2023-03-12T09:37:17.865Z,71.41
2023-03-12T09:40:07.816Z,69.93
2023-03-12T09:42:59.736Z,69.49
2023-03-12T09:45:48.555Z,71.77
2023-03-12T09:48:37.264Z,68.14
2023-03-12T09:51:29.554Z,69.23
2023-03-12T09:54:24.750Z,69.59
2023-03-12T09:57:15.008Z,69.92
2023-03-12T10:00:07.353Z,68.80
2023-03-12T10:03:12.224Z,67.61
2023-03-12T10:06:09.892Z,68.65
2023-03-12T10:09:07.900Z,67.54
2023-03-12T10:12:05.225Z,67.01
2023-03-12T10:15:04.105Z,65.94
2023-03-12T10:18:06.458Z,64.28
2023-03-12T10:21:03.651Z,64.91
2023-03-12T10:24:06.518Z,62.40
2023-03-12T10:26:56.439Z,62.10
2023-03-12T10:29:47.043Z,64.14
2023-03-12T10:32:42.298Z,64.12
2023-03-12T10:35:32.845Z,64.00
2023-03-12T10:38:28.888Z,62.81
2023-03-12T10:41:18.883Z,63.91
2023-03-12T10:44:10.123Z,61.80
2023-03-12T10:47:12.533Z,63.90
2023-03-12T10:50:15.163Z,66.00
2023-03-12T10:53:22.823Z,64.73
2023-03-12T10:56:11.678Z,60.92
2023-03-12T10:59:00.351Z,62.32
2023-03-12T11:01:50.307Z,61.66
2023-03-12T11:04:39.191Z,62.33
2023-03-12T11:07:29.348Z,60.63
2023-03-12T11:10:23.900Z,62.34
2023-03-12T11:13:26.402Z,62.49
2023-03-12T11:16:30.776Z,61.03
2023-03-12T11:19:29.731Z,63.07
2023-03-12T11:22:29.470Z,60.38
2023-03-12T11:25:23.956Z,61.19
2023-03-12T11:28:19.254Z,63.65
2023-03-12T11:31:10.413Z,65.00
2023-03-12T11:34:04.635Z,61.83
2023-03-12T11:36:57.992Z,59.63
2023-03-12T11:39:59.712Z,62.88
2023-03-12T11:43:06.170Z,59.49
2023-03-12T11:46:09.323Z,61.43
2023-03-12T11:49:08.765Z,59.46
2023-03-12T11:52:04.026Z,62.29
2023-03-12T11:55:16.341Z,60.12
2023-03-12T11:58:21.952Z,60.46
2023-03-12T12:01:14.333Z,60.61
2023-03-12T12:04:35.232Z,60.91
2023-03-12T12:07:35.601Z,61.18
2023-03-12T12:10:29.771Z,60.04
2023-03-12T12:13:25.057Z,62.14
2023-03-12T12:16:29.110Z,61.38
2023-03-12T12:19:28.491Z,62.48
2023-03-12T12:22:35.952Z,61.88
2023-03-12T12:25:35.474Z,60.85
2023-03-12T12:29:06.824Z,60.15
2023-03-12T12:31:56.898Z,58.92
2023-03-12T12:35:06.079Z,56.33
2023-03-12T12:37:57.860Z,53.45
2023-03-12T12:40:49.056Z,52.95
2023-03-12T12:43:39.317Z,53.63
2023-03-12T12:46:32.227Z,53.90
2023-03-12T12:49:23.732Z,55.82
2023-03-12T12:52:13.905Z,57.56
2023-03-12T12:55:07.862Z,57.06
2023-03-12T12:58:00.668Z,55.68
2023-03-12T13:00:51.292Z,55.63
2023-03-12T13:03:40.064Z,56.00
2023-03-12T13:06:29.974Z,55.58
2023-03-12T13:09:17.816Z,53.60
2023-03-12T13:12:26.372Z,51.82
2023-03-12T13:15:40.017Z,48.81
2023-03-12T13:18:30.330Z,50.61
2023-03-12T13:21:25.959Z,51.20
2023-03-12T13:24:20.626Z,47.50
2023-03-12T13:27:16.476Z,48.54
2023-03-12T13:30:44.861Z,48.39
2023-03-12T13:33:45.094Z,48.54
2023-03-12T13:36:37.169Z,51.87
2023-03-12T13:39:32.138Z,50.29
2023-03-12T13:42:40.018Z,49.88
2023-03-12T13:45:31.135Z,51.09
2023-03-12T13:48:20.210Z,52.85
2023-03-12T13:51:16.925Z,51.62
2023-03-12T13:54:05.912Z,50.11
2023-03-12T13:56:58.852Z,51.50
2023-03-12T13:59:47.283Z,47.81
2023-03-12T14:02:37.928Z,48.28
2023-03-12T14:05:24.611Z,47.20
2023-03-12T14:08:30.946Z,45.72
2023-03-12T14:11:38.177Z,44.30
2023-03-12T14:14:41.547Z,42.97
2023-03-12T14:17:30.390Z,42.27
2023-03-12T14:20:20.313Z,44.12
2023-03-12T14:23:10.278Z,42.03
2023-03-12T14:26:00.139Z,41.45
2023-03-12T14:28:55.959Z,41.86
2023-03-12T14:31:43.499Z,43.20
2023-03-12T14:34:34.739Z,43.23
2023-03-12T14:37:24.989Z,45.79
2023-03-12T14:40:23.399Z,46.80
2023-03-12T14:43:25.416Z,47.63
2023-03-12T14:46:18.767Z,46.46
2023-03-12T14:49:05.584Z,49.11
2023-03-12T14:51:52.195Z,49.89
2023-03-12T14:54:40.246Z,50.54
2023-03-12T14:57:27.573Z,50.65
2023-03-12T15:00:24.832Z,50.81
2023-03-12T15:03:17.090Z,51.56
2023-03-12T15:06:03.858Z,51.52
2023-03-12T15:08:51.067Z,55.02
2023-03-12T15:11:38.830Z,53.79
2023-03-12T15:14:27.965Z,53.83
2023-03-12T15:17:18.572Z,57.30
2023-03-12T15:20:09.667Z,55.12
2023-03-12T15:22:57.303Z,54.12
2023-03-12T15:25:44.918Z,55.69
2023-03-12T15:28:31.501Z,56.96
2023-03-12T15:31:18.711Z,58.98
2023-03-12T15:34:07.775Z,57.59
2023-03-12T15:36:55.972Z,55.68
2023-03-12T15:39:48.560Z,57.47
2023-03-12T15:42:41.259Z,58.54
2023-03-12T15:45:36.320Z,54.73
2023-03-12T15:48:27.620Z,55.73
2023-03-12T15:51:17.446Z,55.46
2023-03-12T15:54:07.762Z,55.46
2023-03-12T15:56:54.394Z,55.15
2023-03-12T15:59:41.277Z,57.44
2023-03-12T16:02:38.506Z,60.13
2023-03-12T16:05:28.651Z,58.45
2023-03-12T16:08:17.527Z,59.93
2023-03-12T16:11:07.387Z,60.08
2023-03-12T16:14:00.576Z,58.07
2023-03-12T16:16:47.886Z,58.77
2023-03-12T16:19:34.862Z,60.60
2023-03-12T16:22:22.596Z,58.76
2023-03-12T16:25:12.017Z,59.55
2023-03-12T16:28:03.391Z,62.27
2023-03-12T16:30:51.638Z,64.35
2023-03-12T16:33:38.392Z,69.51
2023-03-12T16:36:25.321Z,70.18
2023-03-12T16:39:12.328Z,68.34
2023-03-12T16:41:58.946Z,69.13
2023-03-12T16:44:47.938Z,68.97
2023-03-12T16:47:34.679Z,71.80
2023-03-12T16:50:23.662Z,75.12
2023-03-12T16:53:12.732Z,74.15
2023-03-12T16:56:02.073Z,75.00
2023-03-12T16:58:49.718Z,75.05
2023-03-12T17:01:38.244Z,77.45
2023-03-12T17:04:24.715Z,76.55
2023-03-12T17:07:11.463Z,77.14
2023-03-12T17:09:59.734Z,77.12
2023-03-12T17:12:48.335Z,76.53
2023-03-12T17:15:35.343Z,76.94
2023-03-12T17:18:23.714Z,76.53
2023-03-12T17:21:13.406Z,76.64
2023-03-12T17:24:00.237Z,77.06
2023-03-12T17:26:47.784Z,76.92
2023-03-12T17:29:34.439Z,77.14
2023-03-12T17:32:21.545Z,78.29
2023-03-12T17:35:10.356Z,78.95
2023-03-12T17:37:57.045Z,80.51
2023-03-12T17:40:44.797Z,79.93
2023-03-12T17:43:32.494Z,81.48
2023-03-12T17:46:19.189Z,82.50
2023-03-12T17:49:06.026Z,82.70
2023-03-12T17:51:54.023Z,84.67
2023-03-12T17:54:40.841Z,85.80
2023-03-12T17:57:27.803Z,89.31
2023-03-12T18:00:15.395Z,90.44
2023-03-12T18:03:03.577Z,90.74
2023-03-12T18:05:51.058Z,91.35
2023-03-12T18:08:39.033Z,92.96
2023-03-12T18:11:25.654Z,96.05
2023-03-12T18:14:12.465Z,94.52
2023-03-12T18:16:59.504Z,96.03
2023-03-12T18:19:46.188Z,94.84
2023-03-12T18:22:32.899Z,96.03
2023-03-12T18:25:21.054Z,96.65
2023-03-12T18:28:07.851Z,96.93
2023-03-12T18:30:55.038Z,99.02
2023-03-12T18:33:41.979Z,100.00
2023-03-12T18:36:28.745Z,100.00
2023-03-12T18:39:15.823Z,100.00
2023-03-12T18:42:03.687Z,100.00
2023-03-12T18:44:51.182Z,100.00
2023-03-12T18:47:39.531Z,100.00
2023-03-12T18:50:26.339Z,100.00
2023-03-12T18:53:13.099Z,100.00
2023-03-12T18:56:01.252Z,100.00
2023-03-12T18:58:49.275Z,100.00
2023-03-12T19:01:36.153Z,100.00
2023-03-12T19:04:22.817Z,100.00
2023-03-12T19:07:10.783Z,100.00
2023-03-12T19:09:57.450Z,100.00
2023-03-12T19:12:53.608Z,100.00
2023-03-12T19:15:41.810Z,100.00
2023-03-12T19:18:29.147Z,100.00
2023-03-12T19:21:16.199Z,100.00
2023-03-12T19:24:03.121Z,100.00
2023-03-12T19:26:49.832Z,100.00
2023-03-12T19:29:36.698Z,100.00
2023-03-12T19:32:27.772Z,100.00
2023-03-12T19:35:19.956Z,100.00
2023-03-12T19:38:06.887Z,100.00
2023-03-12T19:40:55.481Z,100.00
2023-03-12T19:43:42.370Z,100.00
2023-03-12T19:46:31.287Z,100.00
2023-03-12T19:49:19.552Z,100.00
2023-03-12T19:52:06.272Z,100.00
2023-03-12T19:55:03.902Z,100.00
2023-03-12T19:57:51.384Z,100.00
2023-03-12T20:00:38.188Z,100.00
2023-03-12T20:03:25.044Z,100.00
2023-03-12T20:06:13.828Z,100.00
2023-03-12T20:09:00.638Z,100.00
2023-03-12T20:11:47.135Z,100.00
2023-03-12T20:14:34.191Z,100.00
2023-03-12T20:17:21.078Z,100.00
2023-03-12T20:20:09.272Z,100.00
2023-03-12T20:22:57.089Z,100.00
2023-03-12T20:25:44.299Z,100.00
2023-03-12T20:28:30.758Z,100.00
2023-03-12T20:31:18.409Z,100.00
2023-03-12T20:34:05.209Z,100.00
2023-03-12T20:36:51.865Z,100.00
2023-03-12T20:39:39.884Z,100.00
2023-03-12T20:42:26.721Z,100.00
2023-03-12T20:45:13.513Z,100.00
2023-03-12T20:48:00.340Z,100.00
2023-03-12T20:50:50.100Z,100.00
2023-03-12T20:53:37.058Z,100.00
2023-03-12T20:56:25.134Z,100.00
2023-03-12T20:59:11.962Z,100.00
2023-03-12T21:01:58.753Z,100.00
2023-03-12T21:04:45.627Z,100.00
2023-03-12T21:07:32.083Z,100.00
2023-03-12T21:10:19.227Z,100.00
2023-03-12T21:13:07.055Z,100.00
2023-03-12T21:15:54.046Z,100.00
2023-03-12T21:18:40.697Z,100.00
2023-03-12T21:21:27.690Z,100.00
2023-03-12T21:24:14.409Z,100.00
2023-03-12T21:27:01.294Z,100.00
2023-03-12T21:29:49.481Z,100.00
2023-03-12T21:32:36.258Z,100.00
2023-03-12T21:35:23.670Z,100.00
2023-03-12T21:38:10.511Z,100.00
2023-03-12T21:40:59.210Z,100.00
2023-03-12T21:43:46.915Z,100.00
2023-03-12T21:46:35.996Z,100.00
2023-03-12T21:49:22.802Z,100.00
2023-03-12T21:52:09.440Z,100.00
2023-03-12T21:54:56.279Z,100.00
2023-03-12T21:57:43.163Z,100.00
2023-03-12T22:00:29.877Z,100.00
2023-03-12T22:03:18.054Z,100.00
2023-03-12T22:06:05.700Z,100.00
2023-03-12T22:08:52.436Z,100.00
2023-03-12T22:11:39.049Z,100.00
2023-03-12T22:14:26.053Z,100.00
2023-03-12T22:17:12.723Z,100.00
2023-03-12T22:20:00.983Z,100.00
2023-03-12T22:22:47.588Z,100.00
2023-03-12T22:25:36.491Z,100.00
2023-03-12T22:28:25.694Z,100.00
2023-03-12T22:31:12.417Z,100.00
2023-03-12T22:33:59.224Z,100.00
2023-03-12T22:36:47.566Z,100.00
2023-03-12T22:39:34.387Z,100.00
2023-03-12T22:42:21.159Z,100.00
2023-03-12T22:45:09.673Z,100.00
2023-03-12T22:47:56.393Z,100.00
2023-03-12T22:50:43.159Z,100.00
2023-03-12T22:53:32.574Z,100.00
2023-03-12T22:56:19.278Z,100.00
2023-03-12T22:59:05.796Z,100.00
2023-03-12T23:01:52.450Z,100.00
2023-03-12T23:04:39.294Z,100.00
2023-03-12T23:07:26.053Z,100.00
2023-03-12T23:10:14.365Z,100.00
2023-03-12T23:13:01.041Z,100.00
2023-03-12T23:15:48.635Z,100.00
2023-03-12T23:18:35.830Z,100.00
2023-03-12T23:21:24.529Z,100.00
2023-03-12T23:24:11.332Z,100.00
2023-03-12T23:26:59.598Z,100.00
2023-03-12T23:29:46.025Z,100.00
2023-03-12T23:32:32.926Z,100.00
2023-03-12T23:35:19.680Z,100.00
2023-03-12T23:38:06.977Z,100.00
2023-03-12T23:40:54.039Z,100.00
2023-03-12T23:43:42.369Z,100.00
2023-03-12T23:46:29.269Z,100.00
2023-03-12T23:49:15.968Z,100.00
2023-03-12T23:52:02.704Z,100.00
2023-03-12T23:54:49.306Z,100.00
2023-03-12T23:57:36.414Z,100.00
